Hlavní strana
METAR-TAF:

METAR-TAF

Letiště :

San Sebastián, Španělsko

zeměpisná šířka: 43-21N, zeměpisná délka: 001-48W, výška: 5 m

Aktuální stav počasí

Zpráva byla vytvořena před 16 minutami, v 03:00 UTC
Jižní vítr 5 kt, proměnlivý mezi jihojihovýchodním a jihozápadním
Teplota 14°C
Vlhkost vzduchu 88%
Tlak 1028 hPa
Viditelnost 10 km a více
Polojasno ve výšce 2000 ft

METAR: LESO 260300Z AUTO 19005KT 160V220 9999 SCT020 14/12 Q1028

Čas: 05:16 (03:16 UTC)

Předpověď počasí

Zpráva byla vytvořena před 4 hodinami a 16 minutami, v 23:00 UTC
Předpověď platná od 26 v 00 UTC do 26 v 24 UTC
Jihozápadní vítr 6 kt
Viditelnost 10 km a více
Skoro jasno ve výšce 3000 ft
Dočasný
od 26 v 12 UTC do 26 v 18 UTC
Severoseverozápadní vítr 10 kt

TAF: LESO 252300Z 2600/2624 23006KT 9999 FEW030 TX22/2614Z TN15/2605Z TEMPO 2612/2618 34010KT

Stav a předpovědi počasí z více než 4 000 letišť (zprávy METAR a TAF).

Červené a žluté tečky na mapě představují dostupné meteorologické stanice.

Když kurzor umístíte na tečku, zobrazí se název stanice.

Pak kliknutím zobrazíte stav a předpověď počasí.

Chcete-li změnit mapu, kliknutím na zelené tlačítko se znaménkem +mapu přiblížíte, kliknutím na zelené tlačítko se znaménkem – mapu oddálíte a kliknutím na zelené šipky přejdete na sousední mapy.


METAR-TAF: